createdAt,value
2019-01-24T00:00:37.484Z,3.2
2019-01-24T00:01:27.270Z,3.2
2019-01-24T00:02:17.604Z,3.2
2019-01-24T00:03:07.389Z,3.2
2019-01-24T00:03:57.437Z,3.2
2019-01-24T00:04:47.766Z,3.2
2019-01-24T00:05:37.834Z,3.2
2019-01-24T00:06:27.879Z,3.2
2019-01-24T00:07:17.672Z,3.2
2019-01-24T00:08:07.726Z,3.3
2019-01-24T00:08:58.058Z,3.2
2019-01-24T00:09:48.129Z,3.2
2019-01-24T00:10:38.184Z,3.3
2019-01-24T00:11:28.234Z,3.3
2019-01-24T00:12:18.286Z,3.3
2019-01-24T00:13:08.346Z,3.3
2019-01-24T00:13:58.406Z,3.3
2019-01-24T00:14:48.463Z,3.3
2019-01-24T00:15:38.248Z,3.3
2019-01-24T00:16:28.601Z,3.3
2019-01-24T00:17:18.628Z,3.3
2019-01-24T00:18:08.412Z,3.3
2019-01-24T00:18:58.756Z,3.3
2019-01-24T00:19:48.803Z,3.3
2019-01-24T00:20:38.913Z,3.3
2019-01-24T00:21:28.923Z,3.3
2019-01-24T00:22:18.986Z,3.3
2019-01-24T00:23:09.056Z,3.3
2019-01-24T00:23:59.083Z,3.3
2019-01-24T00:24:49.148Z,3.3
2019-01-24T00:25:39.204Z,3.3
2019-01-24T00:26:28.717Z,3.3
2019-01-24T00:27:19.328Z,3.3
2019-01-24T00:28:09.383Z,3.3
2019-01-24T00:28:59.438Z,3.3
2019-01-24T00:29:49.482Z,3.3
2019-01-24T00:30:39.548Z,3.3
2019-01-24T00:31:29.612Z,3.3
2019-01-24T00:32:19.672Z,3.3
2019-01-24T00:33:09.455Z,3.3
2019-01-24T00:33:59.790Z,3.3
2019-01-24T00:34:49.568Z,3.3
2019-01-24T00:35:39.892Z,3.3
2019-01-24T00:36:29.713Z,3.3
2019-01-24T00:37:19.742Z,3.3
2019-01-24T00:38:09.794Z,3.3
2019-01-24T00:39:00.124Z,3.3
2019-01-24T00:39:50.187Z,3.3
2019-01-24T00:40:39.959Z,3.3
2019-01-24T00:41:30.291Z,3.3
2019-01-24T00:42:20.354Z,3.3
2019-01-24T00:43:10.144Z,3.3
2019-01-24T00:44:00.188Z,3.3
2019-01-24T00:44:50.531Z,3.3
2019-01-24T00:45:40.580Z,3.3
2019-01-24T00:46:30.639Z,3.3
2019-01-24T00:47:20.696Z,3.3
2019-01-24T00:48:10.758Z,3.3
2019-01-24T00:49:00.824Z,3.3
2019-01-24T00:49:50.586Z,3.3
2019-01-24T00:50:40.936Z,3.3
2019-01-24T00:51:30.991Z,3.3
2019-01-24T00:52:20.766Z,3.3
2019-01-24T00:53:11.101Z,3.3
2019-01-24T00:54:01.196Z,3.3
2019-01-24T00:54:51.203Z,3.3
2019-01-24T00:55:41.266Z,3.3
2019-01-24T00:56:30.786Z,3.3
2019-01-24T00:57:21.384Z,3.3
2019-01-24T00:58:11.172Z,3.3
2019-01-24T00:59:01.536Z,3.3
2019-01-24T00:59:51.558Z,3.3
2019-01-24T01:00:41.614Z,3.3
2019-01-24T01:01:31.668Z,3.3
2019-01-24T01:02:21.738Z,3.3
2019-01-24T01:03:11.790Z,3.3
2019-01-24T01:04:01.838Z,3.3
2019-01-24T01:04:51.903Z,3.3
2019-01-24T01:05:41.969Z,3.3
2019-01-24T01:06:31.755Z,3.3
2019-01-24T01:07:22.080Z,3.3
2019-01-24T01:08:12.168Z,3.3
2019-01-24T01:09:02.196Z,3.3
2019-01-24T01:09:52.243Z,3.3
2019-01-24T01:10:42.309Z,3.3
2019-01-24T01:11:32.363Z,3.3
2019-01-24T01:12:22.425Z,3.3
2019-01-24T01:13:12.202Z,3.3
2019-01-24T01:14:02.533Z,3.3
2019-01-24T01:14:52.597Z,3.3
2019-01-24T01:15:42.391Z,3.3
2019-01-24T01:16:32.714Z,3.3
2019-01-24T01:17:22.765Z,3.3
2019-01-24T01:18:12.824Z,3.3
2019-01-24T01:19:02.602Z,3.3
2019-01-24T01:19:52.934Z,3.3
2019-01-24T01:20:42.990Z,3.4
2019-01-24T01:21:33.055Z,3.3
2019-01-24T01:22:23.109Z,3.4
2019-01-24T01:23:12.896Z,3.3
2019-01-24T01:24:03.224Z,3.4
2019-01-24T01:24:52.999Z,3.4
2019-01-24T01:25:43.338Z,3.4
2019-01-24T01:26:33.117Z,3.4
2019-01-24T01:27:23.449Z,3.4
2019-01-24T01:28:13.014Z,3.4
2019-01-24T01:29:03.576Z,3.4
2019-01-24T01:29:53.621Z,3.4
2019-01-24T01:30:43.681Z,3.4
2019-01-24T01:31:33.459Z,3.4
2019-01-24T01:32:23.799Z,3.4
2019-01-24T01:33:13.859Z,3.4
2019-01-24T01:34:03.638Z,3.4
2019-01-24T01:34:53.977Z,3.4
2019-01-24T01:35:44.023Z,3.4
2019-01-24T01:36:34.086Z,3.4
2019-01-24T01:37:24.138Z,3.4
2019-01-24T01:38:14.195Z,3.4
2019-01-24T01:39:04.247Z,3.4
2019-01-24T01:39:54.038Z,3.4
2019-01-24T01:40:44.373Z,3.4
2019-01-24T01:41:34.156Z,3.4
2019-01-24T01:42:24.483Z,3.4
2019-01-24T01:43:14.270Z,3.4
2019-01-24T01:44:04.595Z,3.4
2019-01-24T01:44:54.108Z,3.4
2019-01-24T01:45:44.719Z,3.4
2019-01-24T01:46:34.495Z,3.4
2019-01-24T01:47:24.826Z,3.4
2019-01-24T01:48:14.898Z,3.4
2019-01-24T01:49:04.680Z,3.4
2019-01-24T01:49:55.000Z,3.4
2019-01-24T01:50:45.104Z,3.4
2019-01-24T01:51:34.565Z,3.4
2019-01-24T01:52:25.177Z,3.4
2019-01-24T01:53:15.239Z,3.4
2019-01-24T01:54:04.752Z,3.4
2019-01-24T01:54:55.354Z,3.4
2019-01-24T01:55:45.440Z,3.4
2019-01-24T01:56:35.466Z,3.4
2019-01-24T01:57:25.512Z,3.4
2019-01-24T01:58:15.580Z,3.4
2019-01-24T01:59:05.627Z,3.4
2019-01-24T01:59:55.147Z,3.4
2019-01-24T02:00:45.752Z,3.4
2019-01-24T02:01:35.803Z,3.4
2019-01-24T02:02:25.862Z,3.4
2019-01-24T02:03:15.923Z,3.4
2019-01-24T02:04:05.983Z,3.4
2019-01-24T02:04:56.031Z,3.4
2019-01-24T02:05:45.829Z,3.4
2019-01-24T02:06:36.194Z,3.4
2019-01-24T02:07:25.941Z,3.4
2019-01-24T02:08:15.719Z,3.4
2019-01-24T02:09:06.319Z,3.4
2019-01-24T02:09:56.381Z,3.4
2019-01-24T02:10:46.440Z,3.4
2019-01-24T02:11:36.491Z,3.4
2019-01-24T02:12:26.559Z,3.4
2019-01-24T02:13:16.611Z,3.4
2019-01-24T02:14:06.411Z,3.4
2019-01-24T02:14:56.728Z,3.4
2019-01-24T02:15:46.784Z,3.4
2019-01-24T02:16:36.871Z,3.4
2019-01-24T02:17:26.906Z,3.4
2019-01-24T02:18:16.952Z,3.4
2019-01-24T02:19:07.070Z,3.5
2019-01-24T02:19:56.810Z,3.4
2019-01-24T02:20:47.131Z,3.5
2019-01-24T02:21:37.190Z,3.5
2019-01-24T02:22:27.253Z,3.4
2019-01-24T02:23:17.025Z,3.5
2019-01-24T02:24:07.371Z,3.5
2019-01-24T02:24:57.425Z,3.5
2019-01-24T02:25:47.473Z,3.5
2019-01-24T02:26:37.535Z,3.5
2019-01-24T02:27:27.330Z,3.5
2019-01-24T02:28:17.646Z,3.5
2019-01-24T02:29:07.427Z,3.5
2019-01-24T02:29:57.770Z,3.5
2019-01-24T02:30:47.832Z,3.6
2019-01-24T02:31:37.605Z,3.5
2019-01-24T02:32:27.662Z,3.6
2019-01-24T02:33:17.987Z,3.6
2019-01-24T02:34:07.784Z,3.6
2019-01-24T02:34:58.099Z,3.6
2019-01-24T02:35:48.185Z,3.6
2019-01-24T02:36:37.955Z,3.6
2019-01-24T02:37:28.277Z,3.6
2019-01-24T02:38:18.056Z,3.6
2019-01-24T02:39:08.421Z,3.6
2019-01-24T02:39:58.453Z,3.6
2019-01-24T02:40:47.968Z,3.6
2019-01-24T02:41:38.570Z,3.6
2019-01-24T02:42:28.343Z,3.6
2019-01-24T02:43:18.709Z,3.6
2019-01-24T02:44:08.734Z,3.6
2019-01-24T02:44:58.524Z,3.6
2019-01-24T02:45:48.870Z,3.6
2019-01-24T02:46:38.668Z,3.6
2019-01-24T02:47:28.974Z,3.6
2019-01-24T02:48:19.047Z,3.6
2019-01-24T02:49:08.807Z,3.6
2019-01-24T02:49:59.139Z,3.6
2019-01-24T02:50:48.942Z,3.6
2019-01-24T02:51:38.996Z,3.7
2019-01-24T02:52:28.494Z,3.7
2019-01-24T02:53:19.103Z,3.7
2019-01-24T02:54:09.426Z,3.7
2019-01-24T02:54:59.216Z,3.7
2019-01-24T02:55:49.536Z,3.7
2019-01-24T02:56:39.328Z,3.7
2019-01-24T02:57:29.652Z,3.7
2019-01-24T02:58:19.710Z,3.7
2019-01-24T02:59:09.773Z,3.7
2019-01-24T02:59:59.833Z,3.8
2019-01-24T03:00:49.617Z,3.7
2019-01-24T03:01:39.943Z,3.7
2019-01-24T03:02:30.011Z,3.8
2019-01-24T03:03:20.053Z,3.8
2019-01-24T03:04:10.122Z,3.7
2019-01-24T03:04:59.914Z,3.8
2019-01-24T03:08:32.612Z,3.8
2019-01-24T03:09:22.952Z,3.8
2019-01-24T03:10:12.740Z,3.8
2019-01-24T03:11:03.067Z,3.8
2019-01-24T03:11:53.116Z,3.8
2019-01-24T03:12:43.177Z,3.8
2019-01-24T03:13:32.955Z,3.8
2019-01-24T03:14:23.292Z,3.8
2019-01-24T03:15:13.094Z,3.8
2019-01-24T03:16:03.136Z,3.8
2019-01-24T03:16:53.475Z,3.8
2019-01-24T03:17:43.522Z,3.8
2019-01-24T03:18:33.304Z,3.8
2019-01-24T03:19:23.637Z,3.9
2019-01-24T03:20:13.438Z,3.9
2019-01-24T03:21:03.766Z,3.9
2019-01-24T03:21:53.819Z,3.9
2019-01-24T03:22:43.869Z,3.9
2019-01-24T03:23:33.929Z,3.9
2019-01-24T03:24:23.981Z,3.9
2019-01-24T03:25:13.478Z,3.9
2019-01-24T03:26:04.089Z,3.9
2019-01-24T03:26:53.889Z,3.9
2019-01-24T03:27:44.222Z,3.9
2019-01-24T03:28:33.992Z,3.9
2019-01-24T03:29:24.052Z,3.9
2019-01-24T03:30:14.441Z,3.9
2019-01-24T03:31:04.179Z,3.9
2019-01-24T03:31:54.554Z,3.9
2019-01-24T03:32:44.334Z,4
2019-01-24T03:33:34.378Z,4
2019-01-24T03:34:24.675Z,4
2019-01-24T03:35:14.783Z,4
2019-01-24T03:36:04.776Z,4
2019-01-24T03:36:54.566Z,4
2019-01-24T03:37:44.630Z,4
2019-01-24T03:38:34.961Z,4.1
2019-01-24T03:39:25.004Z,4.1
2019-01-24T03:40:14.793Z,4.1
2019-01-24T03:41:05.145Z,4.1
2019-01-24T03:41:55.200Z,4.1
2019-01-24T03:42:45.263Z,4.1
2019-01-24T03:43:35.300Z,4.1
2019-01-24T03:44:25.368Z,4.1
2019-01-24T03:45:15.420Z,4.1
2019-01-24T03:46:05.478Z,4.1
2019-01-24T03:46:55.570Z,4.1
2019-01-24T03:47:45.587Z,4.1
2019-01-24T03:48:35.647Z,4.1
2019-01-24T03:49:25.430Z,4.2
2019-01-24T03:50:15.756Z,4.2
2019-01-24T03:51:05.589Z,4.2
2019-01-24T03:51:55.876Z,4.2
2019-01-24T03:52:45.937Z,4.2
2019-01-24T03:53:35.998Z,4.2
2019-01-24T03:54:26.091Z,4.2
2019-01-24T03:55:15.833Z,4.2
2019-01-24T03:56:06.152Z,4.2
2019-01-24T03:56:55.947Z,4.2
2019-01-24T03:57:46.298Z,4.3
2019-01-24T03:58:36.331Z,4.3
2019-01-24T03:59:26.426Z,4.3
2019-01-24T04:00:16.460Z,4.3
2019-01-24T04:01:06.516Z,4.3
2019-01-24T04:01:56.564Z,4.3
2019-01-24T04:02:46.350Z,4.3
2019-01-24T04:03:36.684Z,4.3
2019-01-24T04:04:26.741Z,4.3
2019-01-24T04:05:16.807Z,4.3
2019-01-24T04:06:06.842Z,4.3
2019-01-24T04:06:56.988Z,4.3
2019-01-24T04:07:46.986Z,4.3
2019-01-24T04:08:36.763Z,4.3
2019-01-24T04:09:26.801Z,4.3
2019-01-24T04:10:17.162Z,4.3
2019-01-24T04:11:07.201Z,4.3
2019-01-24T04:11:57.249Z,4.4
2019-01-24T04:12:47.314Z,4.4
2019-01-24T04:13:37.096Z,4.4
2019-01-24T04:14:27.155Z,4.4
2019-01-24T04:15:17.501Z,4.4
2019-01-24T04:16:07.535Z,4.4
2019-01-24T04:16:57.609Z,4.4
2019-01-24T04:17:47.658Z,4.4
2019-01-24T04:18:37.162Z,4.4
2019-01-24T04:19:27.826Z,4.4
2019-01-24T04:20:17.859Z,4.4
2019-01-24T04:21:07.880Z,4.4
2019-01-24T04:21:57.940Z,4.4
2019-01-24T04:22:47.998Z,4.4
2019-01-24T04:23:38.065Z,4.4
2019-01-24T04:24:28.107Z,4.5
2019-01-24T04:25:18.300Z,4.5
2019-01-24T04:26:08.239Z,4.5
2019-01-24T04:26:58.295Z,4.5
2019-01-24T04:27:48.382Z,4.5
2019-01-24T04:28:38.125Z,4.5
2019-01-24T04:29:28.470Z,4.6
2019-01-24T04:30:18.516Z,4.6
2019-01-24T04:31:08.572Z,4.6
2019-01-24T04:31:58.635Z,4.6
2019-01-24T04:32:48.717Z,4.6
2019-01-24T04:33:38.739Z,4.6
2019-01-24T04:34:28.812Z,4.6
2019-01-24T04:35:21.619Z,4.6
2019-01-24T04:36:08.929Z,4.6
2019-01-24T04:36:58.986Z,4.6
2019-01-24T04:37:48.777Z,4.6
2019-01-24T04:38:39.102Z,4.6
2019-01-24T04:39:29.154Z,4.6
2019-01-24T04:40:19.214Z,4.6
2019-01-24T04:41:08.994Z,4.6
2019-01-24T04:41:59.323Z,4.6
2019-01-24T04:42:49.412Z,4.6
2019-01-24T04:43:39.447Z,4.6
2019-01-24T04:44:29.496Z,4.6
2019-01-24T04:45:19.578Z,4.7
2019-01-24T04:46:09.344Z,4.6
2019-01-24T04:46:59.666Z,4.6
2019-01-24T04:47:49.488Z,4.7
2019-01-24T04:48:39.523Z,4.7
2019-01-24T04:49:29.298Z,4.7
2019-01-24T04:50:19.446Z,4.7
2019-01-24T04:51:09.683Z,4.8
2019-01-24T04:52:00.006Z,4.7
2019-01-24T04:52:49.806Z,4.7
2019-01-24T04:53:40.145Z,4.7
2019-01-24T04:54:29.914Z,4.7
2019-01-24T04:55:19.763Z,4.7
2019-01-24T04:56:10.329Z,4.8
2019-01-24T04:57:00.353Z,4.8
2019-01-24T04:57:50.418Z,4.7
2019-01-24T04:58:40.483Z,4.8
2019-01-24T04:59:30.561Z,4.8
2019-01-24T05:00:20.317Z,4.8
2019-01-24T05:01:10.100Z,4.8
2019-01-24T05:02:00.702Z,4.8
2019-01-24T05:02:50.783Z,4.8
2019-01-24T05:03:40.812Z,4.8
2019-01-24T05:04:30.620Z,4.8
2019-01-24T05:05:29.002Z,4.8
2019-01-24T05:06:11.090Z,4.8
2019-01-24T05:07:01.121Z,4.8
2019-01-24T05:07:51.114Z,4.8
2019-01-24T05:08:41.165Z,4.8
2019-01-24T05:09:30.945Z,4.8
2019-01-24T05:10:21.377Z,4.8
2019-01-24T05:11:11.054Z,4.8
2019-01-24T05:12:01.404Z,4.8
2019-01-24T05:12:51.453Z,4.8
2019-01-24T05:13:41.504Z,4.8
2019-01-24T05:14:31.569Z,4.8
2019-01-24T05:15:21.649Z,4.8
2019-01-24T05:16:11.671Z,4.8
2019-01-24T05:17:01.453Z,4.8
2019-01-24T05:17:51.829Z,4.8
2019-01-24T05:18:41.577Z,4.8
2019-01-24T05:19:31.634Z,4.8
2019-01-24T05:20:21.689Z,4.8
2019-01-24T05:21:12.041Z,4.8
2019-01-24T05:22:02.074Z,4.8
2019-01-24T05:22:52.154Z,4.8
2019-01-24T05:23:42.229Z,4.8
2019-01-24T05:24:32.244Z,4.8
2019-01-24T05:25:22.311Z,4.8
2019-01-24T05:26:12.378Z,4.8
2019-01-24T05:27:02.420Z,4.8
2019-01-24T05:27:52.226Z,4.8
2019-01-24T05:28:42.529Z,4.8
2019-01-24T05:29:32.585Z,4.8
2019-01-24T05:30:22.671Z,4.8
2019-01-24T05:31:12.435Z,4.8
2019-01-24T05:32:02.774Z,4.8
2019-01-24T05:32:52.848Z,4.8
2019-01-24T05:33:42.876Z,4.8
2019-01-24T05:34:32.946Z,4.8
2019-01-24T05:35:22.717Z,4.8
2019-01-24T05:36:13.077Z,4.8
2019-01-24T05:37:02.835Z,4.8
2019-01-24T05:37:53.159Z,4.8
2019-01-24T05:38:43.237Z,4.8
2019-01-24T05:39:33.279Z,4.8
2019-01-24T05:40:23.347Z,4.8
2019-01-24T05:41:13.396Z,4.8
2019-01-24T05:42:03.441Z,4.8
2019-01-24T05:42:53.531Z,4.8
2019-01-24T05:43:43.572Z,4.8
2019-01-24T05:44:33.616Z,4.8
2019-01-24T05:45:23.704Z,4.8
2019-01-24T05:46:13.743Z,4.8
2019-01-24T05:47:03.792Z,4.8
2019-01-24T05:47:53.856Z,4.8
2019-01-24T05:48:43.898Z,4.8
2019-01-24T05:49:33.684Z,4.8
2019-01-24T05:50:25.536Z,4.8
2019-01-24T05:51:14.069Z,4.8
2019-01-24T05:52:04.156Z,4.8
2019-01-24T05:52:53.913Z,4.8
2019-01-24T05:53:44.291Z,4.8
2019-01-24T05:54:34.321Z,4.8
2019-01-24T05:55:24.363Z,4.8
2019-01-24T05:56:14.423Z,4.8
2019-01-24T05:57:04.475Z,4.8
2019-01-24T05:57:54.534Z,4.8
2019-01-24T05:58:44.596Z,4.8
2019-01-24T05:59:34.651Z,4.8
2019-01-24T06:00:24.430Z,4.8
2019-01-24T06:01:14.755Z,4.9
2019-01-24T06:02:04.823Z,4.8
2019-01-24T06:02:54.875Z,4.8
2019-01-24T06:03:44.922Z,4.8
2019-01-24T06:04:34.987Z,4.8
2019-01-24T06:06:32.742Z,4.8
2019-01-24T06:07:22.819Z,4.8
2019-01-24T06:08:12.588Z,4.8
2019-01-24T06:09:02.924Z,4.8
2019-01-24T06:09:52.970Z,4.8
2019-01-24T06:10:42.758Z,4.9
2019-01-24T06:11:33.082Z,4.8
2019-01-24T06:12:23.139Z,4.8
2019-01-24T06:13:12.959Z,4.9
2019-01-24T06:14:03.249Z,4.9
2019-01-24T06:14:53.307Z,4.8
2019-01-24T06:15:43.087Z,4.9
2019-01-24T06:16:33.151Z,4.9
2019-01-24T06:17:23.199Z,4.9
2019-01-24T06:18:13.545Z,4.9
2019-01-24T06:19:03.595Z,4.9
2019-01-24T06:19:53.663Z,4.9
2019-01-24T06:20:43.440Z,4.9
2019-01-24T06:21:33.772Z,4.9
2019-01-24T06:22:23.819Z,4.9
2019-01-24T06:23:13.668Z,4.9
2019-01-24T06:24:03.658Z,4.9
2019-01-24T06:24:53.991Z,4.9
2019-01-24T06:25:43.781Z,4.9
2019-01-24T06:26:34.114Z,4.9
2019-01-24T06:27:24.171Z,4.9
2019-01-24T06:28:13.973Z,4.9
2019-01-24T06:29:04.576Z,4.9
2019-01-24T06:29:54.338Z,4.9
2019-01-24T06:30:44.390Z,4.9
2019-01-24T06:31:34.445Z,4.9
2019-01-24T06:32:24.501Z,4.9
2019-01-24T06:33:14.286Z,5
2019-01-24T06:34:04.641Z,5
2019-01-24T06:34:54.703Z,5
2019-01-24T06:35:50.267Z,5
2019-01-24T06:36:34.793Z,5
2019-01-24T06:37:24.583Z,5
2019-01-24T06:38:14.893Z,5
2019-01-24T06:39:04.963Z,5
2019-01-24T06:39:55.013Z,5.1
2019-01-24T06:40:45.070Z,5.1
2019-01-24T06:41:34.853Z,5.1
2019-01-24T06:42:24.910Z,5.1
2019-01-24T06:43:15.237Z,5.1
2019-01-24T06:44:05.298Z,5.1
2019-01-24T06:44:55.350Z,5.1
2019-01-24T06:45:45.409Z,5.1
2019-01-24T06:46:35.502Z,5.2
2019-01-24T06:47:25.253Z,5.2
2019-01-24T06:48:15.307Z,5.2
2019-01-24T06:49:05.642Z,5.2
2019-01-24T06:49:55.758Z,5.3
2019-01-24T06:50:45.760Z,5.3
2019-01-24T06:51:35.812Z,5.3
2019-01-24T06:52:25.867Z,5.3
2019-01-24T06:53:15.926Z,5.3
2019-01-24T06:54:05.982Z,5.3
2019-01-24T06:54:56.037Z,5.4
2019-01-24T06:55:46.099Z,5.4
2019-01-24T06:56:36.164Z,5.4
2019-01-24T06:57:26.217Z,5.4
2019-01-24T06:58:16.267Z,5.5
2019-01-24T06:59:06.333Z,5.5
2019-01-24T06:59:56.392Z,5.5
2019-01-24T07:00:46.449Z,5.6
2019-01-24T07:01:36.502Z,5.6
2019-01-24T07:02:26.554Z,5.6
2019-01-24T07:03:16.614Z,5.7
2019-01-24T07:04:06.396Z,5.7
2019-01-24T07:06:32.681Z,5.8
2019-01-24T07:07:22.456Z,5.9
2019-01-24T07:08:12.801Z,5.9
2019-01-24T07:09:02.855Z,6
2019-01-24T07:09:52.921Z,6
2019-01-24T07:10:42.694Z,6.1
2019-01-24T07:11:32.741Z,6.1
2019-01-24T07:12:23.078Z,6.1
2019-01-24T07:13:13.143Z,6.2
2019-01-24T07:14:03.196Z,6.3
2019-01-24T07:14:52.978Z,6.3
2019-01-24T07:15:43.036Z,6.4
2019-01-24T07:16:33.409Z,6.4
2019-01-24T07:17:23.198Z,6.5
2019-01-24T07:18:13.477Z,6.6
2019-01-24T07:19:03.266Z,6.7
2019-01-24T07:19:53.598Z,6.8
2019-01-24T07:20:43.658Z,6.9
2019-01-24T07:21:33.700Z,7
2019-01-24T07:22:23.773Z,7.1
2019-01-24T07:23:13.815Z,7.2
2019-01-24T07:24:03.880Z,7.3
2019-01-24T07:24:53.943Z,7.3
2019-01-24T07:25:43.992Z,7.4
2019-01-24T07:26:33.767Z,7.5
2019-01-24T07:27:24.104Z,7.5
2019-01-24T07:28:14.170Z,7.6
2019-01-24T07:29:03.672Z,7.7
2019-01-24T07:29:54.002Z,7.7
2019-01-24T07:30:44.107Z,7.8
2019-01-24T07:31:34.409Z,7.8
2019-01-24T07:32:24.454Z,7.9
2019-01-24T07:33:14.519Z,7.9
2019-01-24T07:34:04.569Z,8
2019-01-24T07:34:54.349Z,8.1
2019-01-24T07:35:44.420Z,8.1
2019-01-24T07:36:34.746Z,8.1
2019-01-24T07:37:24.791Z,8.2
2019-01-24T07:38:14.576Z,8.2
2019-01-24T07:39:04.912Z,8.3
2019-01-24T07:39:54.964Z,8.3
2019-01-24T07:40:45.029Z,8.3
2019-01-24T07:41:35.082Z,8.4
2019-01-24T07:42:24.321Z,8.4
2019-01-24T07:43:16.267Z,8.4
2019-01-24T07:44:05.266Z,8.5
2019-01-24T07:44:55.316Z,8.5
2019-01-24T07:45:45.381Z,8.5
2019-01-24T07:46:35.159Z,8.6
2019-01-24T07:47:25.478Z,8.6
2019-01-24T07:48:15.268Z,8.6
2019-01-24T07:49:05.601Z,8.6
2019-01-24T07:49:55.104Z,8.6
2019-01-24T07:50:45.711Z,8.6
2019-01-24T07:51:35.763Z,8.7
2019-01-24T07:52:25.828Z,8.7
2019-01-24T07:53:15.888Z,8.8
2019-01-24T07:54:05.660Z,8.8
2019-01-24T07:54:56.003Z,8.8
2019-01-24T07:55:46.059Z,8.8
2019-01-24T07:56:36.115Z,8.8
2019-01-24T07:57:25.626Z,8.8
2019-01-24T07:58:16.236Z,8.8
2019-01-24T07:59:06.283Z,8.8
2019-01-24T07:59:56.343Z,8.9
2019-01-24T08:00:46.115Z,8.9
2019-01-24T08:01:36.453Z,8.9
2019-01-24T08:02:26.503Z,8.9
2019-01-24T08:03:15.748Z,8.9
2019-01-24T08:04:06.633Z,8.9
2019-01-24T08:04:56.685Z,8.9
2019-01-24T08:05:46.752Z,9
2019-01-24T08:06:36.527Z,9
2019-01-24T08:07:26.863Z,9.1
2019-01-24T08:08:16.912Z,9.1
2019-01-24T08:09:06.975Z,9.1
2019-01-24T08:09:56.755Z,9.1
2019-01-24T08:10:46.810Z,9.1
2019-01-24T08:11:36.872Z,9.1
2019-01-24T08:12:26.920Z,9.1
2019-01-24T08:13:16.985Z,9.2
2019-01-24T08:14:07.322Z,9.2
2019-01-24T08:14:57.379Z,9.2
2019-01-24T08:15:47.432Z,9.2
2019-01-24T08:16:37.499Z,9.3
2019-01-24T08:17:27.541Z,9.3
2019-01-24T08:18:17.332Z,9.3
2019-01-24T08:19:07.657Z,9.3
2019-01-24T08:19:57.714Z,9.3
2019-01-24T08:20:47.505Z,9.3
2019-01-24T08:21:37.826Z,9.3
2019-01-24T08:22:27.921Z,9.3
2019-01-24T08:23:17.959Z,9.4
2019-01-24T08:24:08.014Z,9.4
2019-01-24T08:24:58.061Z,9.4
2019-01-24T08:25:48.126Z,9.4
2019-01-24T08:26:38.176Z,9.4
2019-01-24T08:27:28.228Z,9.4
2019-01-24T08:28:18.296Z,9.5
2019-01-24T08:29:08.079Z,9.5
2019-01-24T08:29:58.136Z,9.6
2019-01-24T08:30:48.468Z,9.6
2019-01-24T08:31:38.514Z,9.7
2019-01-24T08:32:28.303Z,9.7
2019-01-24T08:33:18.628Z,9.8
2019-01-24T08:34:08.423Z,9.8
2019-01-24T08:34:58.758Z,9.9
2019-01-24T08:35:48.811Z,9.9
2019-01-24T08:36:38.866Z,10
2019-01-24T08:37:28.644Z,10.1
2019-01-24T08:38:18.703Z,10.1
2019-01-24T08:39:09.031Z,10.2
2019-01-24T08:39:58.813Z,10.3
2019-01-24T08:40:48.870Z,10.3
2019-01-24T08:41:39.205Z,10.4
2019-01-24T08:42:29.270Z,10.5
2019-01-24T08:43:19.320Z,10.6
2019-01-24T08:44:09.380Z,10.7
2019-01-24T08:44:59.437Z,10.8
2019-01-24T08:45:49.210Z,10.9
2019-01-24T08:46:39.562Z,10.9
2019-01-24T08:47:29.604Z,11
2019-01-24T08:48:19.668Z,11.1
2019-01-24T08:49:09.452Z,11.2
2019-01-24T08:49:59.792Z,11.3
2019-01-24T08:50:49.560Z,11.4
2019-01-24T08:51:39.617Z,11.5
2019-01-24T08:52:29.725Z,11.6
2019-01-24T08:53:20.018Z,11.6
2019-01-24T08:54:10.097Z,11.7
2019-01-24T08:55:00.175Z,11.8
2019-01-24T08:55:49.912Z,11.8
2019-01-24T08:56:40.240Z,11.9
2019-01-24T08:57:30.310Z,11.9
2019-01-24T08:58:20.363Z,12
2019-01-24T08:59:10.128Z,12.1
2019-01-24T09:00:00.265Z,12.1
2019-01-24T09:00:50.270Z,12.1
2019-01-24T09:01:40.584Z,12.2
2019-01-24T09:02:30.636Z,12.3
2019-01-24T09:03:20.697Z,12.3
2019-01-24T09:04:10.754Z,12.3
2019-01-24T09:05:00.536Z,12.4
2019-01-24T09:05:50.588Z,12.4
2019-01-24T09:06:40.716Z,12.4
2019-01-24T09:07:31.012Z,12.5
2019-01-24T09:08:20.490Z,12.5
2019-01-24T09:09:11.091Z,12.6
2019-01-24T09:10:00.940Z,12.6
2019-01-24T09:10:50.937Z,12.6
2019-01-24T09:11:41.264Z,12.6
2019-01-24T09:12:31.729Z,12.7
2019-01-24T09:13:21.111Z,12.8
2019-01-24T09:14:11.436Z,12.8
2019-01-24T09:15:01.424Z,12.8
2019-01-24T09:15:51.543Z,12.8
2019-01-24T09:16:41.328Z,12.9
2019-01-24T09:17:31.666Z,12.9
2019-01-24T09:18:21.720Z,12.9
2019-01-24T09:19:11.778Z,12.9
2019-01-24T09:20:01.654Z,13
2019-01-24T09:20:51.885Z,13.1
2019-01-24T09:21:41.960Z,13.1
2019-01-24T09:22:31.738Z,13.2
2019-01-24T09:23:22.065Z,13.3
2019-01-24T09:24:12.122Z,13.4
2019-01-24T09:25:02.184Z,13.4
2019-01-24T09:25:52.273Z,13.6
2019-01-24T09:26:42.018Z,13.7
2019-01-24T09:27:32.555Z,13.9
2019-01-24T09:28:22.402Z,14
2019-01-24T09:29:12.190Z,14.2
2019-01-24T09:30:02.254Z,14.4
2019-01-24T09:30:52.590Z,14.6
2019-01-24T09:31:42.357Z,14.8
2019-01-24T09:32:32.417Z,15
2019-01-24T09:33:22.523Z,15.2
2019-01-24T09:34:12.529Z,15.4
2019-01-24T09:35:02.872Z,15.5
2019-01-24T09:35:52.655Z,15.7
2019-01-24T09:36:42.972Z,15.8
2019-01-24T09:37:32.487Z,15.9
2019-01-24T09:38:23.095Z,16
2019-01-24T09:39:12.885Z,16.2
2019-01-24T09:40:03.219Z,16.3
2019-01-24T09:40:52.716Z,16.4
2019-01-24T09:41:43.322Z,16.6
2019-01-24T09:42:33.379Z,16.8
2019-01-24T09:44:13.500Z,17.3
2019-01-24T09:45:03.286Z,17.7
2019-01-24T09:45:53.339Z,18.2
2019-01-24T09:46:43.663Z,18.8
2019-01-24T09:47:33.726Z,19.3
2019-01-24T09:48:23.786Z,19.8
2019-01-24T09:49:13.564Z,20.3
2019-01-24T09:50:03.892Z,20.6
2019-01-24T09:50:53.966Z,20.9
2019-01-24T09:52:34.076Z,21.3
2019-01-24T09:53:24.126Z,21.5
2019-01-24T09:54:14.193Z,21.7
2019-01-24T09:55:04.878Z,21.9
2019-01-24T09:55:54.026Z,22.1
2019-01-24T09:56:44.358Z,22.3
2019-01-24T09:57:34.133Z,22.5
2019-01-24T09:58:24.477Z,22.7
2019-01-24T09:59:14.525Z,22.8
2019-01-24T10:00:04.585Z,22.9
2019-01-24T10:00:54.650Z,23
2019-01-24T10:01:44.705Z,23.1
2019-01-24T10:02:34.477Z,23.2
2019-01-24T10:03:24.818Z,23.3
2019-01-24T10:04:14.875Z,23.3
2019-01-24T10:05:04.933Z,23.3
2019-01-24T10:07:32.537Z,23.2
2019-01-24T10:08:22.305Z,23.2
2019-01-24T10:09:12.637Z,23.1
2019-01-24T10:10:02.736Z,23.1
2019-01-24T10:10:52.794Z,23
2019-01-24T10:11:42.805Z,22.9
2019-01-24T10:12:32.864Z,22.9
2019-01-24T10:13:22.925Z,22.8
2019-01-24T10:14:12.979Z,22.8
2019-01-24T10:15:03.042Z,22.7
2019-01-24T10:15:53.099Z,22.7
2019-01-24T10:16:43.152Z,22.6
2019-01-24T10:17:34.319Z,22.6
2019-01-24T10:18:23.327Z,22.6
2019-01-24T10:19:13.324Z,22.6
2019-01-24T10:20:03.389Z,22.5
2019-01-24T10:20:53.429Z,22.4
2019-01-24T10:21:43.489Z,22.4
2019-01-24T10:22:33.593Z,22.4
2019-01-24T10:23:23.599Z,22.4
2019-01-24T10:24:13.669Z,22.3
2019-01-24T10:25:03.452Z,22.3
2019-01-24T10:25:53.781Z,22.3
2019-01-24T10:26:43.884Z,22.2
2019-01-24T10:27:34.088Z,22.1
2019-01-24T10:28:23.953Z,22.1
2019-01-24T10:29:13.726Z,22
2019-01-24T10:30:04.071Z,21.9
2019-01-24T10:30:54.161Z,21.9
2019-01-24T10:31:44.199Z,21.8
2019-01-24T10:32:33.968Z,21.8
2019-01-24T10:33:24.295Z,21.7
2019-01-24T10:34:14.353Z,21.6
2019-01-24T10:35:03.885Z,21.6
2019-01-24T10:35:53.920Z,21.6
2019-01-24T10:36:44.768Z,21.4
2019-01-24T10:37:34.578Z,21.4
2019-01-24T10:38:24.637Z,21.3
2019-01-24T10:39:14.433Z,21.3
2019-01-24T10:40:04.812Z,21.3
2019-01-24T10:40:54.828Z,21.2
2019-01-24T10:42:34.928Z,21.1
2019-01-24T10:43:24.982Z,21
2019-01-24T10:44:15.038Z,21
2019-01-24T10:45:05.097Z,20.9
2019-01-24T10:45:55.150Z,20.9
2019-01-24T10:46:45.215Z,20.9
2019-01-24T10:47:35.264Z,20.8
2019-01-24T10:48:25.325Z,20.8
2019-01-24T10:49:15.105Z,20.8
2019-01-24T10:50:05.182Z,20.8
2019-01-24T10:50:55.505Z,20.8
2019-01-24T10:51:45.284Z,20.7
2019-01-24T10:52:35.339Z,20.7
2019-01-24T10:53:25.394Z,20.7
2019-01-24T10:54:15.460Z,20.6
2019-01-24T10:55:05.517Z,20.6
2019-01-24T10:55:55.837Z,20.6
2019-01-24T10:56:45.352Z,20.6
2019-01-24T10:57:35.956Z,20.6
2019-01-24T10:58:26.025Z,20.5
2019-01-24T10:59:16.074Z,20.5
2019-01-24T11:00:05.874Z,20.4
2019-01-24T11:00:56.194Z,20.4
2019-01-24T11:01:45.966Z,20.4
2019-01-24T11:02:36.299Z,20.4
2019-01-24T11:03:26.369Z,20.3
2019-01-24T11:04:16.139Z,20.3
2019-01-24T11:05:06.478Z,20.3
2019-01-24T11:05:56.541Z,20.3
2019-01-24T11:06:51.516Z,20.2
2019-01-24T11:07:36.643Z,20.2
2019-01-24T11:08:26.435Z,20.1
2019-01-24T11:09:16.764Z,20.1
2019-01-24T11:10:06.824Z,20.1
2019-01-24T11:10:56.899Z,20.1
2019-01-24T11:11:46.931Z,20.1
2019-01-24T11:12:36.988Z,20.1
2019-01-24T11:13:26.556Z,20.1
2019-01-24T11:14:17.129Z,20.1
2019-01-24T11:15:06.610Z,20.1
2019-01-24T11:15:56.948Z,20.2
2019-01-24T11:16:47.283Z,20.2
2019-01-24T11:17:37.068Z,20.3
2019-01-24T11:18:27.118Z,20.3
2019-01-24T11:19:17.450Z,20.3
2019-01-24T11:20:07.508Z,20.4
2019-01-24T11:20:57.568Z,20.4
2019-01-24T11:21:47.618Z,20.4
2019-01-24T11:22:37.688Z,20.5
2019-01-24T11:23:27.737Z,20.6
2019-01-24T11:24:17.795Z,20.6
2019-01-24T11:25:07.630Z,20.6
2019-01-24T11:25:57.902Z,20.7
2019-01-24T11:26:47.965Z,20.7
2019-01-24T11:27:37.747Z,20.8
2019-01-24T11:28:28.747Z,20.8
2019-01-24T11:29:18.147Z,20.9
2019-01-24T11:30:08.195Z,21
2019-01-24T11:30:58.257Z,21.1
2019-01-24T11:31:48.057Z,21.2
2019-01-24T11:32:38.369Z,21.3
2019-01-24T11:33:28.422Z,21.5
2019-01-24T11:34:18.492Z,21.6
2019-01-24T11:35:08.537Z,21.8